createdAt,value
2022-09-01T00:00:13.273Z,15.77
2022-09-01T00:02:39.723Z,15.68
2022-09-01T00:05:07.624Z,15.81
2022-09-01T00:07:35.255Z,15.69
2022-09-01T00:10:05.169Z,15.66
2022-09-01T00:12:31.924Z,15.59
2022-09-01T00:14:59.314Z,15.47
2022-09-01T00:17:26.708Z,15.46
2022-09-01T00:19:53.394Z,15.51
2022-09-01T00:22:20.028Z,15.51
2022-09-01T00:24:47.023Z,15.41
2022-09-01T00:27:13.568Z,15.48
2022-09-01T00:29:43.424Z,15.44
2022-09-01T00:32:11.542Z,15.44
2022-09-01T00:34:38.287Z,15.41
2022-09-01T00:37:04.751Z,15.33
2022-09-01T00:39:31.469Z,15.31
2022-09-01T00:41:59.242Z,15.15
2022-09-01T00:44:29.720Z,15.14
2022-09-01T00:46:59.359Z,15.24
2022-09-01T00:49:35.675Z,15.20
2022-09-01T00:52:10.788Z,15.24
2022-09-01T00:54:41.743Z,15.14
2022-09-01T00:57:09.866Z,15.17
2022-09-01T00:59:43.463Z,15.12
2022-09-01T01:02:11.188Z,15.09
2022-09-01T01:04:37.906Z,15.02
2022-09-01T01:07:08.876Z,14.90
2022-09-01T01:09:38.497Z,14.88
2022-09-01T01:12:06.438Z,14.85
2022-09-01T01:14:36.845Z,14.94
2022-09-01T01:17:03.663Z,14.84
2022-09-01T01:20:05.067Z,14.92
2022-09-01T01:23:16.014Z,14.91
2022-09-01T01:25:44.108Z,14.87
2022-09-01T01:28:18.186Z,14.79
2022-09-01T01:30:52.797Z,14.84
2022-09-01T01:33:23.433Z,14.68
2022-09-01T01:35:52.461Z,14.76
2022-09-01T01:38:22.579Z,14.69
2022-09-01T01:40:51.743Z,14.68
2022-09-01T01:43:23.138Z,14.81
2022-09-01T01:45:53.565Z,14.82
2022-09-01T01:48:34.411Z,14.78
2022-09-01T01:51:01.626Z,14.82
2022-09-01T01:53:29.048Z,14.91
2022-09-01T01:55:56.047Z,14.90
2022-09-01T01:58:24.511Z,14.75
2022-09-01T02:00:53.801Z,14.76
2022-09-01T02:03:24.948Z,14.56
2022-09-01T02:05:53.865Z,14.63
2022-09-01T02:08:25.856Z,14.54
2022-09-01T02:10:54.945Z,14.57
2022-09-01T02:13:25.192Z,14.62
2022-09-01T02:15:54.816Z,14.60
2022-09-01T02:18:26.992Z,14.50
2022-09-01T02:20:59.061Z,14.52
2022-09-01T02:23:25.641Z,14.49
2022-09-01T02:26:15.116Z,14.52
2022-09-01T02:28:45.753Z,14.50
2022-09-01T02:31:12.697Z,14.38
2022-09-01T02:33:44.032Z,14.53
2022-09-01T02:36:15.156Z,14.56
2022-09-01T02:38:44.554Z,14.51
2022-09-01T02:41:14.239Z,14.44
2022-09-01T02:43:43.499Z,14.24
2022-09-01T02:46:10.843Z,14.24
2022-09-01T02:48:40.421Z,14.18
2022-09-01T02:51:14.084Z,14.22
2022-09-01T02:53:42.763Z,14.20
2022-09-01T02:56:15.325Z,14.29
2022-09-01T02:58:46.778Z,14.30
2022-09-01T03:01:20.318Z,14.30
2022-09-01T03:03:48.541Z,14.23
2022-09-01T03:06:18.374Z,14.02
2022-09-01T03:08:46.312Z,14.03
2022-09-01T03:11:13.542Z,14.10
2022-09-01T03:13:41.679Z,14.03
2022-09-01T03:16:09.749Z,13.98
2022-09-01T03:18:37.480Z,13.94
2022-09-01T03:21:06.141Z,13.87
2022-09-01T03:23:34.028Z,13.94
2022-09-01T03:26:01.614Z,13.90
2022-09-01T03:28:29.511Z,13.90
2022-09-01T03:30:57.786Z,13.87
2022-09-01T03:33:26.494Z,13.84
2022-09-01T03:35:55.066Z,13.74
2022-09-01T03:38:25.105Z,13.81
2022-09-01T03:40:58.928Z,13.84
2022-09-01T03:43:27.735Z,13.91
2022-09-01T03:46:02.479Z,13.86
2022-09-01T03:48:31.567Z,13.89
2022-09-01T03:51:02.677Z,13.73
2022-09-01T03:53:34.155Z,13.90
2022-09-01T03:56:01.585Z,13.77
2022-09-01T03:58:28.428Z,13.77
2022-09-01T04:00:58.306Z,13.64
2022-09-01T04:03:31.043Z,13.73
2022-09-01T04:06:01.188Z,13.75
2022-09-01T04:08:32.748Z,13.70
2022-09-01T04:11:10.486Z,13.69
2022-09-01T04:13:39.729Z,13.49
2022-09-01T04:16:30.587Z,13.48
2022-09-01T04:18:59.958Z,13.53
2022-09-01T04:21:26.579Z,13.71
2022-09-01T04:23:53.330Z,13.53
2022-09-01T04:26:23.908Z,13.50
2022-09-01T04:28:51.037Z,13.54
2022-09-01T04:31:20.890Z,13.47
2022-09-01T04:33:55.163Z,13.46
2022-09-01T04:36:29.874Z,13.48
2022-09-01T04:39:00.597Z,13.38
2022-09-01T04:41:32.013Z,13.42
2022-09-01T04:44:05.109Z,13.38
2022-09-01T04:46:42.140Z,13.38
2022-09-01T04:49:13.140Z,13.35
2022-09-01T04:51:41.880Z,13.42
2022-09-01T04:54:12.092Z,13.51
2022-09-01T04:56:39.273Z,13.44
2022-09-01T04:59:11.036Z,13.33
2022-09-01T05:01:46.496Z,13.35
2022-09-01T05:04:17.942Z,13.18
2022-09-01T05:06:49.324Z,12.86
2022-09-01T05:09:19.081Z,13.11
2022-09-01T05:12:12.802Z,13.16
2022-09-01T05:14:48.396Z,13.39
2022-09-01T05:17:17.554Z,13.24
2022-09-01T05:19:47.747Z,13.44
2022-09-01T05:22:15.743Z,13.36
2022-09-01T05:24:46.752Z,13.18
2022-09-01T05:27:14.537Z,13.45
2022-09-01T05:29:45.760Z,13.13
2022-09-01T05:32:12.756Z,13.28
2022-09-01T05:34:42.401Z,13.03
2022-09-01T05:37:08.947Z,13.11
2022-09-01T05:39:38.156Z,13.17
2022-09-01T05:42:08.018Z,13.17
2022-09-01T05:44:38.620Z,13.26
2022-09-01T05:47:09.560Z,13.43
2022-09-01T05:49:36.098Z,13.50
2022-09-01T05:52:04.230Z,13.44
2022-09-01T05:54:32.496Z,13.55
2022-09-01T05:57:12.649Z,13.62
2022-09-01T05:59:45.974Z,13.65
2022-09-01T06:02:17.167Z,13.72
2022-09-01T06:04:44.178Z,13.59
2022-09-01T06:07:17.514Z,13.68
2022-09-01T06:09:49.785Z,13.64
2022-09-01T06:12:23.343Z,13.59
2022-09-01T06:14:51.489Z,13.58
2022-09-01T06:17:24.483Z,13.80
2022-09-01T06:19:56.232Z,13.90
2022-09-01T06:22:24.619Z,13.92
2022-09-01T06:24:58.038Z,13.96
2022-09-01T06:27:29.343Z,14.10
2022-09-01T06:29:56.190Z,14.16
2022-09-01T06:32:25.652Z,14.22
2022-09-01T06:34:52.263Z,14.23
2022-09-01T06:37:22.729Z,14.49
2022-09-01T06:39:52.789Z,14.61
2022-09-01T06:42:20.156Z,14.71
2022-09-01T06:44:52.773Z,14.92
2022-09-01T06:47:19.846Z,15.00
2022-09-01T06:49:46.300Z,15.15
2022-09-01T06:52:20.746Z,15.28
2022-09-01T06:54:47.563Z,15.32
2022-09-01T07:00:04.346Z,15.38
2022-09-01T07:02:33.957Z,15.50
2022-09-01T07:08:17.830Z,15.76
2022-09-01T07:12:08.798Z,15.83
2022-09-01T07:16:51.870Z,16.18
2022-09-01T07:19:20.712Z,16.24
2022-09-01T07:22:08.664Z,16.24
2022-09-01T07:24:39.985Z,16.28
2022-09-01T07:27:36.238Z,16.26
2022-09-01T07:30:09.599Z,16.31
2022-09-01T07:32:44.224Z,16.28
2022-09-01T07:35:18.289Z,16.34
2022-09-01T07:43:51.070Z,16.42
2022-09-01T07:46:38.132Z,16.46
2022-09-01T07:51:56.861Z,16.49
2022-09-01T07:54:26.418Z,16.49
2022-09-01T07:56:55.626Z,16.55
2022-09-01T07:59:23.338Z,16.59
2022-09-01T08:01:58.899Z,16.65
2022-09-01T08:04:26.703Z,16.72
2022-09-01T08:06:55.816Z,16.79
2022-09-01T08:09:35.089Z,16.85
2022-09-01T08:12:07.655Z,16.96
2022-09-01T08:14:38.912Z,16.93
2022-09-01T08:19:54.156Z,17.05
2022-09-01T08:22:38.099Z,17.23
2022-09-01T08:25:15.570Z,17.43
2022-09-01T08:27:42.665Z,17.61
2022-09-01T08:30:13.045Z,17.79
2022-09-01T08:32:43.981Z,17.95
2022-09-01T08:35:13.143Z,18.09
2022-09-01T08:37:40.297Z,18.22
2022-09-01T08:40:09.012Z,18.34
2022-09-01T08:43:15.632Z,18.44
2022-09-01T08:45:49.944Z,18.36
2022-09-01T08:51:40.521Z,18.44
2022-09-01T08:54:29.813Z,18.59
2022-09-01T08:57:06.985Z,18.73
2022-09-01T08:59:52.718Z,18.85
2022-09-01T09:02:43.751Z,18.94
2022-09-01T09:05:28.060Z,19.08
2022-09-01T09:08:07.320Z,19.21
2022-09-01T09:10:47.830Z,19.35
2022-09-01T09:13:25.474Z,19.47
2022-09-01T09:16:12.961Z,19.58
2022-09-01T09:18:58.270Z,19.62
2022-09-01T09:21:39.260Z,19.76
2022-09-01T09:24:16.575Z,19.87
2022-09-01T09:26:52.022Z,19.95
2022-09-01T09:29:20.554Z,20.00
2022-09-01T09:31:49.868Z,20.16
2022-09-01T09:34:38.076Z,20.30
2022-09-01T09:37:23.115Z,20.35
2022-09-01T09:40:16.331Z,20.49
2022-09-01T09:42:53.916Z,20.66
2022-09-01T09:45:27.428Z,20.70
2022-09-01T09:47:56.234Z,20.82
2022-09-01T09:50:26.709Z,20.96
2022-09-01T09:53:10.291Z,21.06
2022-09-01T09:55:36.939Z,21.19
2022-09-01T09:58:11.587Z,21.28
2022-09-01T10:00:39.147Z,21.38
2022-09-01T10:03:12.973Z,21.52
2022-09-01T10:05:51.618Z,21.64
2022-09-01T10:08:27.133Z,21.77
2022-09-01T10:10:57.637Z,21.88
2022-09-01T10:13:26.955Z,21.97
2022-09-01T10:15:57.091Z,22.08
2022-09-01T10:18:30.601Z,22.11
2022-09-01T10:21:00.717Z,22.31
2022-09-01T10:23:31.342Z,22.47
2022-09-01T10:26:05.980Z,22.62
2022-09-01T10:28:34.185Z,22.76
2022-09-01T10:31:02.007Z,22.84
2022-09-01T10:33:28.421Z,22.95
2022-09-01T10:35:56.071Z,22.96
2022-09-01T10:38:27.997Z,23.03
2022-09-01T10:41:14.127Z,23.03
2022-09-01T10:43:45.001Z,23.14
2022-09-01T10:46:24.789Z,23.26
2022-09-01T10:48:55.738Z,22.99
2022-09-01T10:51:28.850Z,23.01
2022-09-01T10:54:03.865Z,22.85
2022-09-01T10:56:53.326Z,22.84
2022-09-01T10:59:31.463Z,22.61
2022-09-01T11:04:50.438Z,22.54
2022-09-01T11:07:26.864Z,22.44
2022-09-01T11:10:34.207Z,22.24
2022-09-01T11:13:26.401Z,22.54
2022-09-01T11:15:53.418Z,22.74
2022-09-01T11:18:31.197Z,23.14
2022-09-01T11:21:16.184Z,23.26
2022-09-01T11:23:42.660Z,23.25
2022-09-01T11:26:32.337Z,22.93
2022-09-01T11:28:59.021Z,22.69
2022-09-01T11:31:29.808Z,22.59
2022-09-01T11:34:12.930Z,22.53
2022-09-01T11:36:47.178Z,22.98
2022-09-01T11:39:17.666Z,23.33
2022-09-01T11:42:19.187Z,23.11
2022-09-01T11:44:50.918Z,22.77
2022-09-01T11:47:25.330Z,22.57
2022-09-01T11:50:00.894Z,22.40
2022-09-01T11:52:30.635Z,22.19
2022-09-01T11:54:59.059Z,22.14
2022-09-01T11:57:30.053Z,22.10
2022-09-01T11:59:58.365Z,22.46
2022-09-01T12:02:26.810Z,22.63
2022-09-01T12:04:56.127Z,22.70
2022-09-01T12:07:30.681Z,22.73
2022-09-01T12:09:57.274Z,22.65
2022-09-01T12:12:32.031Z,22.53
2022-09-01T12:15:07.136Z,22.46
2022-09-01T12:17:35.251Z,22.35
2022-09-01T12:20:24.393Z,22.30
2022-09-01T12:22:55.665Z,22.26
2022-09-01T12:25:26.995Z,22.24
2022-09-01T12:27:54.088Z,22.27
2022-09-01T12:30:21.696Z,22.30
2022-09-01T12:32:49.056Z,22.28
2022-09-01T12:35:25.601Z,22.23
2022-09-01T12:38:12.624Z,22.16
2022-09-01T12:40:39.159Z,22.24
2022-09-01T12:43:05.602Z,22.35
2022-09-01T12:45:38.568Z,22.50
2022-09-01T12:48:05.054Z,22.50
2022-09-01T12:50:36.241Z,22.35
2022-09-01T12:53:13.529Z,22.28
2022-09-01T12:55:47.647Z,22.20
2022-09-01T12:58:21.363Z,22.20
2022-09-01T13:00:58.302Z,22.34
2022-09-01T13:03:27.441Z,22.38
2022-09-01T13:05:56.056Z,22.42
2022-09-01T13:08:28.472Z,22.46
2022-09-01T13:11:04.078Z,22.42
2022-09-01T13:13:31.087Z,22.34
2022-09-01T13:16:02.505Z,22.30
2022-09-01T13:18:30.001Z,22.28
2022-09-01T13:20:58.198Z,22.18
2022-09-01T13:23:25.011Z,22.15
2022-09-01T13:25:51.518Z,22.23
2022-09-01T13:28:18.930Z,22.39
2022-09-01T13:31:28.439Z,22.34
2022-09-01T13:39:11.716Z,22.83
2022-09-01T13:41:38.176Z,22.79
2022-09-01T13:44:04.848Z,22.80
2022-09-01T13:46:31.241Z,22.96
2022-09-01T13:49:41.792Z,22.86
2022-09-01T13:51:43.993Z,22.81
2022-09-01T13:54:10.413Z,22.87
2022-09-01T13:56:37.476Z,22.85
2022-09-01T13:59:03.990Z,22.74
2022-09-01T14:01:30.688Z,22.71
2022-09-01T14:04:00.601Z,22.74
2022-09-01T14:06:27.277Z,22.59
2022-09-01T14:08:53.676Z,22.53
2022-09-01T14:11:20.093Z,22.46
2022-09-01T14:13:46.776Z,22.42
2022-09-01T14:16:15.036Z,22.32
2022-09-01T14:18:42.816Z,22.26
2022-09-01T14:21:14.714Z,22.25
2022-09-01T14:23:42.482Z,22.23
2022-09-01T14:26:13.992Z,22.20
2022-09-01T14:28:45.719Z,22.17
2022-09-01T14:31:14.082Z,22.17
2022-09-01T14:33:41.621Z,22.19
2022-09-01T14:36:14.504Z,22.25
2022-09-01T14:38:41.461Z,22.27
2022-09-01T14:41:07.848Z,22.32
2022-09-01T14:43:34.373Z,22.33
2022-09-01T14:46:06.535Z,22.42
2022-09-01T14:48:34.164Z,22.40
2022-09-01T14:51:01.300Z,22.37
2022-09-01T14:53:29.736Z,22.35
2022-09-01T14:55:57.617Z,22.35
2022-09-01T14:58:26.370Z,22.37
2022-09-01T15:01:00.375Z,22.41
2022-09-01T15:03:34.566Z,22.38
2022-09-01T15:06:00.940Z,22.40
2022-09-01T15:08:27.384Z,22.43
2022-09-01T15:10:53.764Z,22.45
2022-09-01T15:13:20.168Z,22.44
2022-09-01T15:15:46.709Z,22.49
2022-09-01T15:18:13.251Z,22.53
2022-09-01T15:20:46.508Z,22.56
2022-09-01T15:23:21.709Z,22.54
2022-09-01T15:25:50.825Z,22.58
2022-09-01T15:28:17.716Z,22.56
2022-09-01T15:30:45.565Z,22.59
2022-09-01T15:33:15.688Z,22.56
2022-09-01T15:35:44.318Z,22.51
2022-09-01T15:38:12.383Z,22.53
2022-09-01T15:40:45.816Z,22.51
2022-09-01T15:43:24.657Z,22.54
2022-09-01T15:45:51.045Z,22.52
2022-09-01T15:48:18.400Z,22.48
2022-09-01T15:50:44.778Z,22.46
2022-09-01T15:53:13.146Z,22.45
2022-09-01T15:55:41.803Z,22.47
2022-09-01T15:58:09.686Z,22.43
2022-09-01T16:00:36.898Z,22.40
2022-09-01T16:03:05.054Z,22.43
2022-09-01T16:05:35.045Z,22.39
2022-09-01T16:08:03.554Z,22.37
2022-09-01T16:10:34.954Z,22.34
2022-09-01T16:13:04.512Z,22.32
2022-09-01T16:15:31.467Z,22.30
2022-09-01T16:18:16.430Z,22.26
2022-09-01T16:20:50.968Z,22.28
2022-09-01T16:23:19.909Z,22.25
2022-09-01T16:25:46.863Z,22.25
2022-09-01T16:28:27.726Z,22.20
2022-09-01T16:31:01.306Z,22.19
2022-09-01T16:33:27.790Z,22.17
2022-09-01T16:36:03.062Z,22.18
2022-09-01T16:38:37.637Z,22.18
2022-09-01T16:41:43.750Z,22.17
2022-09-01T16:44:23.534Z,22.17
2022-09-01T16:47:19.118Z,22.11
2022-09-01T16:50:03.844Z,22.15
2022-09-01T16:53:02.094Z,22.14
2022-09-01T16:55:42.718Z,22.13
2022-09-01T16:58:24.146Z,22.11
2022-09-01T17:01:16.375Z,22.08
2022-09-01T17:04:05.519Z,22.08
2022-09-01T17:06:47.577Z,22.02
2022-09-01T17:09:39.639Z,22.03
2022-09-01T17:12:23.118Z,22.01
2022-09-01T17:14:59.381Z,21.99
2022-09-01T17:17:45.017Z,21.98
2022-09-01T17:20:13.943Z,21.97
2022-09-01T17:22:49.522Z,21.96
2022-09-01T17:25:27.028Z,21.95
2022-09-01T17:28:01.553Z,21.91
2022-09-01T17:30:28.054Z,21.89
2022-09-01T17:33:17.603Z,21.90
2022-09-01T17:36:09.667Z,21.85
2022-09-01T17:38:40.430Z,21.82
2022-09-01T17:41:29.146Z,21.79
2022-09-01T17:44:06.997Z,21.75
2022-09-01T17:46:42.343Z,21.73
2022-09-01T17:49:25.238Z,21.69
2022-09-01T17:52:28.780Z,21.65
2022-09-01T17:55:07.080Z,21.54
2022-09-01T17:57:46.926Z,21.50
2022-09-01T18:00:25.987Z,21.46
2022-09-01T18:03:29.798Z,21.44
2022-09-01T18:06:04.377Z,21.35
2022-09-01T18:08:49.778Z,21.27
2022-09-01T18:11:26.089Z,21.16
2022-09-01T18:14:08.065Z,21.06
2022-09-01T18:16:58.420Z,20.95
2022-09-01T18:19:35.053Z,20.87
2022-09-01T18:22:06.277Z,20.79
2022-09-01T18:24:43.088Z,20.65
2022-09-01T18:27:09.513Z,20.59
2022-09-01T18:29:35.892Z,20.46
2022-09-01T18:32:18.381Z,20.44
2022-09-01T18:34:54.337Z,20.35
2022-09-01T18:37:33.766Z,20.25
2022-09-01T18:40:38.618Z,20.09
2022-09-01T18:43:29.442Z,19.88
2022-09-01T18:46:16.474Z,19.99
2022-09-01T18:48:52.459Z,20.02
2022-09-01T18:51:21.519Z,19.96
2022-09-01T18:54:11.714Z,19.90
2022-09-01T18:56:46.980Z,19.76
2022-09-01T18:59:44.517Z,19.77
2022-09-01T19:02:52.513Z,19.75
2022-09-01T19:05:38.310Z,19.70
2022-09-01T19:08:23.678Z,19.69
2022-09-01T19:11:20.126Z,19.59
2022-09-01T19:13:55.404Z,19.48
2022-09-01T19:16:49.327Z,19.43
2022-09-01T19:19:21.862Z,19.39
2022-09-01T19:21:52.813Z,19.38
2022-09-01T19:24:33.586Z,19.33
2022-09-01T19:27:24.595Z,19.32
2022-09-01T19:30:04.039Z,19.26
2022-09-01T19:32:34.163Z,19.22
2022-09-01T19:35:11.756Z,19.22
2022-09-01T19:37:40.061Z,19.17
2022-09-01T19:40:08.194Z,19.16
2022-09-01T19:42:45.384Z,19.15
2022-09-01T19:45:25.712Z,19.10
2022-09-01T19:48:01.252Z,19.03
2022-09-01T19:50:41.360Z,19.05
2022-09-01T19:53:39.601Z,19.07
2022-09-01T19:56:06.086Z,19.11
2022-09-01T19:58:35.420Z,19.06
2022-09-01T20:01:11.139Z,19.08
2022-09-01T20:03:46.741Z,19.04
2022-09-01T20:06:21.591Z,19.10
2022-09-01T20:08:55.551Z,19.09
2022-09-01T20:11:59.620Z,19.06
2022-09-01T20:14:45.450Z,19.01
2022-09-01T20:17:21.983Z,19.06
2022-09-01T20:20:07.998Z,19.05
2022-09-01T20:23:02.606Z,18.96
2022-09-01T20:25:45.085Z,19.05
2022-09-01T20:28:48.366Z,19.03
2022-09-01T20:31:28.654Z,19.01
2022-09-01T20:34:05.267Z,18.96
2022-09-01T20:36:44.917Z,19.01
2022-09-01T20:39:54.940Z,18.99
2022-09-01T20:42:31.422Z,18.89
2022-09-01T20:45:12.529Z,18.86
2022-09-01T20:47:39.105Z,18.87
2022-09-01T20:50:13.795Z,18.89
2022-09-01T20:53:09.370Z,18.87
2022-09-01T20:55:49.889Z,18.83
2022-09-01T20:58:37.193Z,18.82
2022-09-01T21:01:18.021Z,18.81
2022-09-01T21:04:29.370Z,18.77
2022-09-01T21:07:05.303Z,18.71
2022-09-01T21:09:50.608Z,18.75
2022-09-01T21:12:36.643Z,18.63
2022-09-01T21:15:08.716Z,18.62
2022-09-01T21:17:49.848Z,18.65
2022-09-01T21:20:16.172Z,18.66
2022-09-01T21:22:42.680Z,18.70
2022-09-01T21:25:09.257Z,18.75
2022-09-01T21:27:52.528Z,18.73
2022-09-01T21:30:20.510Z,18.78
2022-09-01T21:32:47.644Z,18.76
2022-09-01T21:35:18.989Z,18.77
2022-09-01T21:37:45.483Z,18.76
2022-09-01T21:40:13.209Z,18.82
2022-09-01T21:42:48.124Z,18.76
2022-09-01T21:45:17.120Z,18.76
2022-09-01T21:47:45.955Z,18.71
2022-09-01T21:50:14.498Z,18.76
2022-09-01T21:52:41.110Z,18.76
2022-09-01T21:55:08.281Z,18.72
2022-09-01T21:57:36.380Z,18.71
2022-09-01T22:00:08.865Z,18.58
2022-09-01T22:02:41.153Z,18.56
2022-09-01T22:05:08.096Z,18.53
2022-09-01T22:07:40.310Z,18.54
2022-09-01T22:10:09.222Z,18.33
2022-09-01T22:12:36.798Z,18.27
2022-09-01T22:15:05.760Z,18.23
2022-09-01T22:17:32.250Z,18.24
2022-09-01T22:19:58.892Z,18.25
2022-09-01T22:22:25.530Z,18.27
2022-09-01T22:24:52.135Z,18.22
2022-09-01T22:27:18.560Z,18.18
2022-09-01T22:29:45.813Z,18.30
2022-09-01T22:32:12.275Z,18.10
2022-09-01T22:34:38.864Z,18.06
2022-09-01T22:37:09.997Z,17.96
2022-09-01T22:39:36.361Z,18.00
2022-09-01T22:42:03.506Z,17.88
2022-09-01T22:44:29.917Z,17.81
2022-09-01T22:46:56.352Z,17.69
2022-09-01T22:49:22.860Z,17.74
2022-09-01T22:51:49.326Z,17.76
2022-09-01T22:54:16.162Z,17.46
2022-09-01T22:56:43.608Z,17.45
2022-09-01T22:59:14.547Z,17.54
2022-09-01T23:01:43.669Z,17.53
2022-09-01T23:04:13.635Z,17.42
2022-09-01T23:06:44.820Z,17.44
2022-09-01T23:09:11.760Z,17.49
2022-09-01T23:11:38.525Z,17.29
2022-09-01T23:14:05.373Z,17.38
2022-09-01T23:16:32.048Z,17.29
2022-09-01T23:18:58.619Z,17.21
2022-09-01T23:21:29.560Z,17.26
2022-09-01T23:23:58.593Z,17.18
2022-09-01T23:26:27.552Z,17.22
2022-09-01T23:28:54.536Z,17.15
2022-09-01T23:31:24.773Z,16.98
2022-09-01T23:33:51.577Z,17.08
2022-09-01T23:36:21.428Z,17.07
2022-09-01T23:38:48.998Z,17.11
2022-09-01T23:41:18.166Z,16.93
2022-09-01T23:43:44.816Z,16.94
2022-09-01T23:46:24.056Z,16.90
2022-09-01T23:48:50.926Z,16.78
2022-09-01T23:51:18.871Z,16.88
2022-09-01T23:53:46.313Z,16.79
2022-09-01T23:56:18.499Z,16.75
2022-09-01T23:58:46.481Z,16.85
